New Richmond, Wisconsin
Current Conditions -  °F | °C
As of 5:15 AM on Saturday 25 Oct 2014 (Local Time) from KRNH Reporting Station
Clear Clear  
Wind Chill: 10°   Ceiling: Unl
Heat Index: 10°   Visibility: 10mi
Dew Point:   Wind: 8mph
Humidity: 59%   Direction: 290°WNW
Pressure: 29.95"   Gusts: NA
Location:  45.12°N, 92.54°W
Report Text: KRNH 251015Z AUTO 29007KT 10SM CLR 10/02 A2995 RMK AO2 T01010024
Loading
Personal Weather Stations






























Interactive Weather Map
Tropical Storm Tracking
New forecast layout! Learn more

10-Day Weather Forecast

Advertisements
Track Severe Weather on mobile